Terminal Aerodrome Forecast
Issued by NWS

Current Version | Previous Version | Text Only | Print | Product List | Glossary On
Versions: 1 2 3 4 5 6 7 8 9 10 11 12 13 14 15 16 17
279
FTUS43 KIND 110520
TAFHUF
TAF
KHUF 110520Z 1106/1206 15007KT P6SM OVC060
     FM111400 16011G19KT P6SM VCSH OVC040
     FM111800 18013G24KT 6SM -RA OVC035
     FM112000 19013G23KT 6SM -RA OVC025
     FM112200 19013G23KT 4SM -RA BR OVC015
     FM120000 20012G22KT 3SM -RA BR OVC008
     FM120400 23009KT 3SM -RA BR OVC003=

USA.gov is the U.S. government's official web portal to all federal, state and local government web resources and services.